Time,TemperatureF,DewpointF,PressureIn,WindDirection,WindDirectionDegrees,WindSpeedMPH,WindSpeedGustMPH,Humidity,HourlyPrecipIn,Conditions,Clouds,dailyrainin,SoftwareType,DateUTC
2013-04-23 00:00:00,37.0,31.1,30.16,NNW,347,0.0,2.0,79,0.00,,---,0.00,VWS V14.01,2013-04-23 04:00:00,
2013-04-23 00:01:00,35.3,30.4,30.14,NNW,347,0.0,0.0,82,0.00,,---,0.00,VWS V14.01,2013-04-23 04:01:00,
2013-04-23 00:07:00,35.0,30.1,30.14,NNW,347,0.0,0.0,82,0.00,,---,0.00,VWS V14.01,2013-04-23 04:07:00,
2013-04-23 00:10:00,36.9,31.0,30.16,NNW,347,0.0,3.0,79,0.00,,---,0.00,VWS V14.01,2013-04-23 04:10:00,
2013-04-23 00:12:00,34.9,30.3,30.14,NNW,347,0.0,0.0,83,0.00,,---,0.00,VWS V14.01,2013-04-23 04:12:00,
2013-04-23 00:17:00,34.7,30.1,30.13,NNW,347,0.0,0.0,83,0.00,,---,0.00,VWS V14.01,2013-04-23 04:17:00,
2013-04-23 00:20:00,36.6,31.0,30.15,NNW,347,0.0,1.0,80,0.00,,---,0.00,VWS V14.01,2013-04-23 04:20:00,
2013-04-23 00:22:00,34.6,30.3,30.13,NNW,347,0.0,0.0,84,0.00,,---,0.00,VWS V14.01,2013-04-23 04:22:00,
2013-04-23 00:27:00,34.6,30.6,30.13,NNW,347,0.0,0.0,85,0.00,,---,0.00,VWS V14.01,2013-04-23 04:27:00,
2013-04-23 00:30:00,36.2,30.6,30.15,NNW,347,0.0,2.0,80,0.00,,---,0.00,VWS V14.01,2013-04-23 04:30:00,
2013-04-23 00:32:00,34.5,30.5,30.13,NNW,347,0.0,0.0,85,0.00,,---,0.00,VWS V14.01,2013-04-23 04:32:00,
2013-04-23 00:37:00,34.3,30.3,30.13,NNW,347,0.0,0.0,85,0.00,,---,0.00,VWS V14.01,2013-04-23 04:37:00,
2013-04-23 00:40:00,36.0,30.8,30.15,NNW,347,0.0,2.0,81,0.00,,---,0.00,VWS V14.01,2013-04-23 04:40:00,
2013-04-23 00:42:00,34.2,30.2,30.13,NNW,347,0.0,0.0,85,0.00,,---,0.00,VWS V14.01,2013-04-23 04:42:00,
2013-04-23 00:47:00,33.9,30.2,30.12,NNW,347,0.0,0.0,86,0.00,,---,0.00,VWS V14.01,2013-04-23 04:47:00,
2013-04-23 00:50:00,35.9,30.6,30.14,NNW,347,0.0,1.0,81,0.00,,---,0.00,VWS V14.01,2013-04-23 04:50:00,
2013-04-23 00:52:00,33.6,29.9,30.12,NNW,347,0.0,0.0,86,0.00,,---,0.00,VWS V14.01,2013-04-23 04:52:00,
2013-04-23 00:57:00,33.5,29.8,30.12,NNW,347,0.0,0.0,86,0.00,,---,0.00,VWS V14.01,2013-04-23 04:57:00,
2013-04-23 01:00:00,35.5,30.3,30.14,NNW,347,0.0,0.0,81,0.00,,---,0.00,VWS V14.01,2013-04-23 05:00:00,
2013-04-23 01:02:00,33.3,29.9,30.12,NNW,347,0.0,0.0,87,0.00,,---,0.00,VWS V14.01,2013-04-23 05:02:00,
2013-04-23 01:07:00,33.5,30.3,30.12,NNW,347,0.0,2.0,88,0.00,,---,0.00,VWS V14.01,2013-04-23 05:07:00,
2013-04-23 01:10:00,34.9,30.3,30.14,NNW,347,0.0,0.0,83,0.00,,---,0.00,VWS V14.01,2013-04-23 05:10:00,
2013-04-23 01:12:00,33.7,30.5,30.12,NNW,347,0.0,2.0,88,0.00,,---,0.00,VWS V14.01,2013-04-23 05:12:00,
2013-04-23 01:17:00,34.2,31.3,30.11,NNW,347,0.0,3.0,89,0.00,,---,0.00,VWS V14.01,2013-04-23 05:17:00,
2013-04-23 01:20:00,34.6,30.3,30.13,NNW,347,0.0,0.0,84,0.00,,---,0.00,VWS V14.01,2013-04-23 05:20:00,
2013-04-23 01:22:00,35.3,32.4,30.11,NNW,347,2.0,3.0,89,0.00,,---,0.00,VWS V14.01,2013-04-23 05:22:00,
2013-04-23 01:27:00,37.6,34.1,30.10,South,189,2.0,5.0,87,0.00,,---,0.00,VWS V14.01,2013-04-23 05:27:00,
2013-04-23 01:30:00,34.5,30.5,30.13,NNW,347,0.0,0.0,85,0.00,,---,0.00,VWS V14.01,2013-04-23 05:30:00,
2013-04-23 01:32:00,40.2,34.5,30.10,SSW,192,2.0,7.0,80,0.00,,---,0.00,VWS V14.01,2013-04-23 05:32:00,
2013-04-23 01:37:00,42.6,34.6,30.10,South,176,4.0,11.0,73,0.00,,---,0.00,VWS V14.01,2013-04-23 05:37:00,
2013-04-23 01:40:00,34.2,30.2,30.13,NNW,347,0.0,0.0,85,0.00,,---,0.00,VWS V14.01,2013-04-23 05:40:00,
2013-04-23 01:42:00,44.3,34.0,30.10,South,174,1.0,7.0,67,0.00,,---,0.00,VWS V14.01,2013-04-23 05:42:00,
2013-04-23 01:47:00,45.2,34.2,30.10,SSE,157,4.0,7.0,65,0.00,,---,0.00,VWS V14.01,2013-04-23 05:47:00,
2013-04-23 01:50:00,33.8,30.1,30.12,NNW,347,0.0,0.0,86,0.00,,---,0.00,VWS V14.01,2013-04-23 05:50:00,
2013-04-23 01:52:00,46.0,34.5,30.10,South,191,1.0,7.0,64,0.00,,---,0.00,VWS V14.01,2013-04-23 05:52:00,
2013-04-23 01:57:00,46.3,34.0,30.10,South,170,10.0,10.0,62,0.00,,---,0.00,VWS V14.01,2013-04-23 05:57:00,
2013-04-23 02:00:00,33.3,29.6,30.12,NNW,347,0.0,0.0,86,0.00,,---,0.00,VWS V14.01,2013-04-23 06:00:00,
2013-04-23 02:02:00,46.5,34.2,30.11,South,182,3.0,6.0,62,0.00,,---,0.00,VWS V14.01,2013-04-23 06:02:00,
2013-04-23 02:07:00,46.5,33.8,30.10,SSW,213,3.0,9.0,61,0.00,,---,0.00,VWS V14.01,2013-04-23 06:07:00,
2013-04-23 02:10:00,33.5,30.3,30.12,NNW,347,0.0,2.0,88,0.00,,---,0.00,VWS V14.01,2013-04-23 06:10:00,
2013-04-23 02:12:00,46.7,34.0,30.10,South,187,6.0,10.0,61,0.00,,---,0.00,VWS V14.01,2013-04-23 06:12:00,
2013-04-23 02:17:00,46.7,34.0,30.10,SW,221,2.0,10.0,61,0.00,,---,0.00,VWS V14.01,2013-04-23 06:17:00,
2013-04-23 02:20:00,34.7,31.8,30.11,NNW,347,2.0,3.0,89,0.00,,---,0.00,VWS V14.01,2013-04-23 06:20:00,
2013-04-23 02:22:00,46.7,33.6,30.10,SSE,164,2.0,7.0,60,0.00,,---,0.00,VWS V14.01,2013-04-23 06:22:00,
2013-04-23 02:27:00,46.4,33.7,30.09,South,181,3.0,7.0,61,0.00,,---,0.00,VWS V14.01,2013-04-23 06:27:00,
2013-04-23 02:30:00,38.9,34.8,30.10,SSW,196,2.0,5.0,85,0.00,,---,0.00,VWS V14.01,2013-04-23 06:30:00,
2013-04-23 02:32:00,46.4,33.7,30.09,SSE,168,3.0,7.0,61,0.00,,---,0.00,VWS V14.01,2013-04-23 06:32:00,
2013-04-23 02:37:00,46.5,33.4,30.09,SSW,212,1.0,7.0,60,0.00,,---,0.00,VWS V14.01,2013-04-23 06:37:00,
2013-04-23 02:40:00,43.6,34.5,30.10,South,170,2.0,11.0,70,0.00,,---,0.00,VWS V14.01,2013-04-23 06:40:00,
2013-04-23 02:42:00,46.5,33.4,30.09,SSW,203,1.0,4.0,60,0.00,,---,0.00,VWS V14.01,2013-04-23 06:42:00,
2013-04-23 02:47:00,46.4,33.3,30.08,SSW,197,5.0,7.0,60,0.00,,---,0.00,VWS V14.01,2013-04-23 06:47:00,
2013-04-23 02:50:00,45.6,34.1,30.10,SSW,193,5.0,9.0,64,0.00,,---,0.00,VWS V14.01,2013-04-23 06:50:00,
2013-04-23 02:52:00,46.1,33.0,30.08,South,187,2.0,5.0,60,0.00,,---,0.00,VWS V14.01,2013-04-23 06:52:00,
2013-04-23 02:57:00,46.0,32.9,30.07,SSW,212,2.0,5.0,60,0.00,,---,0.00,VWS V14.01,2013-04-23 06:57:00,
2013-04-23 03:00:00,46.4,34.1,30.10,SSE,160,6.0,10.0,62,0.00,,---,0.00,VWS V14.01,2013-04-23 07:00:00,
2013-04-23 03:02:00,45.8,32.7,30.07,SSE,165,4.0,7.0,60,0.00,,---,0.00,VWS V14.01,2013-04-23 07:02:00,
2013-04-23 03:08:00,46.0,32.5,30.07,SSE,161,5.0,7.0,59,0.00,,---,0.00,VWS V14.01,2013-04-23 07:08:00,
2013-04-23 03:10:00,46.5,33.8,30.10,South,180,4.0,9.0,61,0.00,,---,0.00,VWS V14.01,2013-04-23 07:10:00,
2013-04-23 03:13:00,46.1,32.2,30.07,South,175,2.0,7.0,58,0.00,,---,0.00,VWS V14.01,2013-04-23 07:13:00,
2013-04-23 03:18:00,46.0,32.5,30.07,South,185,9.0,9.0,59,0.00,,---,0.00,VWS V14.01,2013-04-23 07:18:00,
2013-04-23 03:20:00,46.7,33.6,30.10,SSW,209,4.0,10.0,60,0.00,,---,0.00,VWS V14.01,2013-04-23 07:20:00,
2013-04-23 03:23:00,46.0,32.5,30.07,SSE,154,5.0,7.0,59,0.00,,---,0.00,VWS V14.01,2013-04-23 07:23:00,
2013-04-23 03:28:00,45.8,32.3,30.06,SSE,163,2.0,7.0,59,0.00,,---,0.00,VWS V14.01,2013-04-23 07:28:00,
2013-04-23 03:30:00,46.3,33.6,30.09,SSW,202,3.0,7.0,61,0.00,,---,0.00,VWS V14.01,2013-04-23 07:30:00,
2013-04-23 03:33:00,45.7,32.2,30.06,SSE,166,2.0,7.0,59,0.00,,---,0.00,VWS V14.01,2013-04-23 07:33:00,
2013-04-23 03:38:00,45.6,32.1,30.06,SSE,153,2.0,7.0,59,0.00,,---,0.00,VWS V14.01,2013-04-23 07:38:00,
2013-04-23 03:40:00,46.5,33.0,30.08,SSW,193,1.0,7.0,59,0.00,,---,0.00,VWS V14.01,2013-04-23 07:40:00,
2013-04-23 03:43:00,45.4,32.3,30.06,SSE,157,1.0,10.0,60,0.00,,---,0.00,VWS V14.01,2013-04-23 07:43:00,
2013-04-23 03:48:00,45.2,32.2,30.06,South,190,5.0,10.0,60,0.00,,---,0.00,VWS V14.01,2013-04-23 07:48:00,
2013-04-23 03:50:00,46.4,32.9,30.08,SSE,159,3.0,7.0,59,0.00,,---,0.00,VWS V14.01,2013-04-23 07:50:00,
2013-04-23 03:53:00,45.1,32.5,30.06,South,169,4.0,7.0,61,0.00,,---,0.00,VWS V14.01,2013-04-23 07:53:00,
2013-04-23 03:58:00,44.7,32.1,30.06,South,176,3.0,8.0,61,0.00,,---,0.00,VWS V14.01,2013-04-23 07:58:00,
2013-04-23 04:00:00,45.8,32.7,30.07,South,172,7.0,7.0,60,0.00,,---,0.00,VWS V14.01,2013-04-23 08:00:00,
2013-04-23 04:03:00,44.6,32.4,30.05,SSE,166,3.0,5.0,62,0.00,,---,0.00,VWS V14.01,2013-04-23 08:03:00,
2013-04-23 04:08:00,44.6,32.4,30.05,SSE,160,1.0,8.0,62,0.00,,---,0.00,VWS V14.01,2013-04-23 08:08:00,
2013-04-23 04:10:00,46.0,32.5,30.07,South,178,6.0,7.0,59,0.00,,---,0.00,VWS V14.01,2013-04-23 08:10:00,
2013-04-23 04:13:00,44.9,32.3,30.04,South,173,3.0,10.0,61,0.00,,---,0.00,VWS V14.01,2013-04-23 08:13:00,
2013-04-23 04:18:00,44.7,32.1,30.04,SSE,168,4.0,10.0,61,0.00,,---,0.00,VWS V14.01,2013-04-23 08:18:00,
2013-04-23 04:20:00,46.0,32.5,30.07,SE,145,2.0,9.0,59,0.00,,---,0.00,VWS V14.01,2013-04-23 08:20:00,
2013-04-23 04:23:00,44.7,32.1,30.04,South,176,2.0,7.0,61,0.00,,---,0.00,VWS V14.01,2013-04-23 08:23:00,
2013-04-23 04:28:00,44.7,32.1,30.04,South,184,1.0,9.0,61,0.00,,---,0.00,VWS V14.01,2013-04-23 08:28:00,
2013-04-23 04:30:00,45.8,32.3,30.06,SE,142,3.0,7.0,59,0.00,,---,0.00,VWS V14.01,2013-04-23 08:30:00,
2013-04-23 04:33:00,44.7,32.1,30.03,SSE,163,4.0,7.0,61,0.00,,---,0.00,VWS V14.01,2013-04-23 08:33:00,
2013-04-23 04:38:00,44.6,32.4,30.04,South,181,4.0,8.0,62,0.00,,---,0.00,VWS V14.01,2013-04-23 08:38:00,
2013-04-23 04:40:00,45.4,32.3,30.06,South,180,1.0,7.0,60,0.00,,---,0.00,VWS V14.01,2013-04-23 08:40:00,
2013-04-23 04:43:00,44.7,32.5,30.03,SSE,155,2.0,5.0,62,0.00,,---,0.00,VWS V14.01,2013-04-23 08:43:00,
2013-04-23 04:48:00,44.7,32.5,30.02,SSE,167,6.0,6.0,62,0.00,,---,0.00,VWS V14.01,2013-04-23 08:48:00,
2013-04-23 04:50:00,45.3,32.2,30.06,SSE,160,2.0,10.0,60,0.00,,---,0.00,VWS V14.01,2013-04-23 08:50:00,
2013-04-23 04:53:00,44.9,32.7,30.02,SE,134,2.0,7.0,62,0.00,,---,0.00,VWS V14.01,2013-04-23 08:53:00,
2013-04-23 04:58:00,44.9,32.7,30.02,South,186,4.0,8.0,62,0.00,,---,0.00,VWS V14.01,2013-04-23 08:58:00,
2013-04-23 05:00:00,44.7,32.1,30.05,South,185,1.0,8.0,61,0.00,,---,0.00,VWS V14.01,2013-04-23 09:00:00,
2013-04-23 05:03:00,44.7,32.5,30.02,South,176,5.0,7.0,62,0.00,,---,0.00,VWS V14.01,2013-04-23 09:03:00,
2013-04-23 05:08:00,44.7,32.5,30.01,South,170,2.0,7.0,62,0.00,,---,0.00,VWS V14.01,2013-04-23 09:08:00,
2013-04-23 05:10:00,44.6,32.0,30.04,ESE,108,2.0,8.0,61,0.00,,---,0.00,VWS V14.01,2013-04-23 09:10:00,
2013-04-23 05:13:00,44.9,33.1,30.00,SSE,155,2.0,8.0,63,0.00,,---,0.00,VWS V14.01,2013-04-23 09:13:00,
2013-04-23 05:18:00,44.7,33.3,30.00,SSE,151,2.0,8.0,64,0.00,,---,0.00,VWS V14.01,2013-04-23 09:18:00,
2013-04-23 05:20:00,44.7,32.1,30.04,SE,140,3.0,10.0,61,0.00,,---,0.00,VWS V14.01,2013-04-23 09:20:00,
2013-04-23 05:23:00,44.7,33.3,30.00,SSW,199,3.0,7.0,64,0.00,,---,0.00,VWS V14.01,2013-04-23 09:23:00,
2013-04-23 05:28:00,45.1,33.7,30.00,SSW,199,1.0,8.0,64,0.00,,---,0.00,VWS V14.01,2013-04-23 09:28:00,
2013-04-23 05:30:00,44.7,32.1,30.04,SSE,160,1.0,9.0,61,0.00,,---,0.00,VWS V14.01,2013-04-23 09:30:00,
2013-04-23 05:33:00,45.4,33.6,30.00,South,177,4.0,7.0,63,0.00,,---,0.00,VWS V14.01,2013-04-23 09:33:00,
2013-04-23 05:38:00,45.6,33.8,29.99,South,176,3.0,8.0,63,0.00,,---,0.00,VWS V14.01,2013-04-23 09:38:00,
2013-04-23 05:40:00,44.7,32.1,30.03,South,178,1.0,8.0,61,0.00,,---,0.00,VWS V14.01,2013-04-23 09:40:00,
2013-04-23 05:43:00,45.5,34.0,29.99,South,171,2.0,7.0,64,0.00,,---,0.00,VWS V14.01,2013-04-23 09:43:00,
2013-04-23 05:48:00,45.5,33.7,29.99,South,184,2.0,7.0,63,0.00,,---,0.00,VWS V14.01,2013-04-23 09:48:00,
2013-04-23 05:50:00,44.7,32.5,30.02,SSE,153,3.0,6.0,62,0.00,,---,0.00,VWS V14.01,2013-04-23 09:50:00,
2013-04-23 05:53:00,45.7,33.8,29.99,SSE,149,4.0,7.0,63,0.00,,---,0.00,VWS V14.01,2013-04-23 09:53:00,
2013-04-23 05:59:00,45.6,33.8,29.98,SSE,153,2.0,8.0,63,0.00,,---,0.00,VWS V14.01,2013-04-23 09:59:00,
2013-04-23 06:00:00,44.9,32.7,30.02,South,176,2.0,8.0,62,0.00,,---,0.00,VWS V14.01,2013-04-23 10:00:00,
2013-04-23 06:04:00,45.5,34.0,29.98,South,188,6.0,9.0,64,0.00,,---,0.00,VWS V14.01,2013-04-23 10:04:00,
2013-04-23 06:09:00,45.4,34.0,29.98,SSE,152,1.0,9.0,64,0.00,,---,0.00,VWS V14.01,2013-04-23 10:09:00,
2013-04-23 06:10:00,44.8,33.0,30.01,South,187,4.0,7.0,63,0.00,,---,0.00,VWS V14.01,2013-04-23 10:10:00,
2013-04-23 06:14:00,45.4,34.0,29.98,South,179,3.0,7.0,64,0.00,,---,0.00,VWS V14.01,2013-04-23 10:14:00,
2013-04-23 06:19:00,45.5,34.0,29.97,SSW,204,3.0,7.0,64,0.00,,---,0.00,VWS V14.01,2013-04-23 10:19:00,
2013-04-23 06:20:00,44.8,33.4,30.00,SSE,157,4.0,8.0,64,0.00,,---,0.00,VWS V14.01,2013-04-23 10:20:00,
2013-04-23 06:24:00,45.5,34.4,29.97,SE,130,2.0,7.0,65,0.00,,---,0.00,VWS V14.01,2013-04-23 10:24:00,
2013-04-23 06:29:00,45.7,34.6,29.97,South,182,3.0,9.0,65,0.00,,---,0.00,VWS V14.01,2013-04-23 10:29:00,
2013-04-23 06:30:00,45.1,33.3,29.99,South,185,3.0,8.0,63,0.00,,---,0.00,VWS V14.01,2013-04-23 10:30:00,
2013-04-23 06:34:00,45.8,34.7,29.96,South,182,2.0,7.0,65,0.00,,---,0.00,VWS V14.01,2013-04-23 10:34:00,
2013-04-23 06:39:00,46.0,34.9,29.96,South,190,4.0,10.0,65,0.00,,---,0.00,VWS V14.01,2013-04-23 10:39:00,
2013-04-23 06:44:00,46.1,35.0,29.96,South,170,4.0,7.0,65,0.00,,---,0.00,VWS V14.01,2013-04-23 10:44:00,
2013-04-23 06:49:00,46.3,35.2,29.96,SSE,166,3.0,7.0,65,0.00,,---,0.00,VWS V14.01,2013-04-23 10:49:00,
2013-04-23 06:50:00,45.7,34.2,29.99,South,185,4.0,7.0,64,0.00,,---,0.00,VWS V14.01,2013-04-23 10:50:00,
2013-04-23 06:54:00,46.3,35.2,29.96,SE,139,2.0,7.0,65,0.00,,---,0.00,VWS V14.01,2013-04-23 10:54:00,
2013-04-23 06:59:00,46.4,35.3,29.96,South,185,3.0,9.0,65,0.00,,---,0.00,VWS V14.01,2013-04-23 10:59:00,
2013-04-23 07:00:00,45.5,34.0,29.98,SSE,165,3.0,8.0,64,0.00,,---,0.00,VWS V14.01,2013-04-23 11:00:00,
2013-04-23 07:04:00,46.5,35.4,29.95,South,178,2.0,7.0,65,0.00,,---,0.00,VWS V14.01,2013-04-23 11:04:00,
2013-04-23 07:09:00,46.7,35.6,29.95,SE,146,3.0,7.0,65,0.00,,---,0.00,VWS V14.01,2013-04-23 11:09:00,
2013-04-23 07:10:00,45.4,34.0,29.98,SSE,152,3.0,9.0,64,0.00,,---,0.00,VWS V14.01,2013-04-23 11:10:00,
2013-04-23 07:14:00,46.8,35.7,29.95,South,175,2.0,5.0,65,0.00,,---,0.00,VWS V14.01,2013-04-23 11:14:00,
2013-04-23 07:19:00,47.0,35.9,29.95,SSE,165,0.0,9.0,65,0.00,,---,0.00,VWS V14.01,2013-04-23 11:19:00,
2013-04-23 07:20:00,45.5,34.0,29.97,SSE,148,4.0,7.0,64,0.00,,---,0.00,VWS V14.01,2013-04-23 11:20:00,
2013-04-23 07:24:00,47.1,35.6,29.95,SSE,160,0.0,6.0,64,0.00,,---,0.00,VWS V14.01,2013-04-23 11:24:00,
2013-04-23 07:29:00,47.3,35.8,29.94,SSW,196,8.0,8.0,64,0.00,,---,0.00,VWS V14.01,2013-04-23 11:29:00,
2013-04-23 07:30:00,45.7,34.6,29.96,South,188,4.0,9.0,65,0.00,,---,0.00,VWS V14.01,2013-04-23 11:30:00,
2013-04-23 07:34:00,47.5,35.5,29.94,South,180,0.0,7.0,63,0.00,,---,0.00,VWS V14.01,2013-04-23 11:34:00,
2013-04-23 07:39:00,47.8,36.2,29.94,South,182,6.0,7.0,64,0.00,,---,0.00,VWS V14.01,2013-04-23 11:39:00,
2013-04-23 07:40:00,46.0,34.5,29.96,SSE,168,3.0,10.0,64,0.00,,---,0.00,VWS V14.01,2013-04-23 11:40:00,
2013-04-23 07:44:00,47.8,36.2,29.94,South,180,2.0,7.0,64,0.00,,---,0.00,VWS V14.01,2013-04-23 11:44:00,
2013-04-23 07:49:00,48.0,36.4,29.94,ESE,115,0.0,7.0,64,0.00,,---,0.00,VWS V14.01,2013-04-23 11:49:00,
2013-04-23 07:50:00,46.2,35.1,29.96,South,182,4.0,7.0,65,0.00,,---,0.00,VWS V14.01,2013-04-23 11:50:00,
2013-04-23 07:54:00,48.0,36.4,29.94,SSW,198,2.0,6.0,64,0.00,,---,0.00,VWS V14.01,2013-04-23 11:54:00,
2013-04-23 07:59:00,48.2,36.2,29.94,SE,131,2.0,6.0,63,0.00,,---,0.00,VWS V14.01,2013-04-23 11:59:00,
2013-04-23 08:00:00,46.5,35.4,29.96,South,179,5.0,9.0,65,0.00,,---,0.00,VWS V14.01,2013-04-23 12:00:00,
2013-04-23 08:04:00,48.5,36.5,29.93,South,182,7.0,7.0,63,0.00,,---,0.00,VWS V14.01,2013-04-23 12:04:00,
2013-04-23 08:09:00,48.7,36.3,29.93,SSE,167,4.0,7.0,62,0.00,,---,0.00,VWS V14.01,2013-04-23 12:09:00,
2013-04-23 08:10:00,46.7,35.6,29.95,South,184,2.0,7.0,65,0.00,,---,0.00,VWS V14.01,2013-04-23 12:10:00,
2013-04-23 08:14:00,49.0,36.6,29.94,SSE,161,3.0,8.0,62,0.00,,---,0.00,VWS V14.01,2013-04-23 12:14:00,
2013-04-23 08:19:00,49.2,36.3,29.93,SSE,149,5.0,8.0,61,0.00,,---,0.00,VWS V14.01,2013-04-23 12:19:00,
2013-04-23 08:20:00,47.0,35.9,29.95,SE,136,0.0,9.0,65,0.00,,---,0.00,VWS V14.01,2013-04-23 12:20:00,
2013-04-23 08:25:00,49.2,36.8,29.93,SSE,155,2.0,6.0,62,0.00,,---,0.00,VWS V14.01,2013-04-23 12:25:00,
2013-04-23 08:30:00,49.5,37.0,29.94,SSE,163,4.0,9.0,62,0.00,,---,0.00,VWS V14.01,2013-04-23 12:30:00,
2013-04-23 08:35:00,49.8,36.9,29.93,SE,146,0.0,7.0,61,0.00,,---,0.00,VWS V14.01,2013-04-23 12:35:00,
2013-04-23 08:40:00,50.1,37.2,29.94,SSE,160,5.0,7.0,61,0.00,,---,0.00,VWS V14.01,2013-04-23 12:40:00,
2013-04-23 08:45:00,50.4,37.5,29.94,South,175,2.0,8.0,61,0.00,,---,0.00,VWS V14.01,2013-04-23 12:45:00,
2013-04-23 08:50:00,50.8,37.8,29.94,SSE,164,6.0,8.0,61,0.00,,---,0.00,VWS V14.01,2013-04-23 12:50:00,
2013-04-23 08:55:00,51.1,37.3,29.94,SE,139,6.0,9.0,59,0.00,,---,0.00,VWS V14.01,2013-04-23 12:55:00,
2013-04-23 09:00:00,51.5,37.2,29.94,SSE,156,5.0,10.0,58,0.00,,---,0.00,VWS V14.01,2013-04-23 13:00:00,
2013-04-23 09:05:00,51.7,37.8,29.94,SSE,153,6.0,10.0,59,0.00,,---,0.00,VWS V14.01,2013-04-23 13:05:00,
2013-04-23 09:10:00,52.0,37.7,29.93,South,181,4.0,10.0,58,0.00,,---,0.00,VWS V14.01,2013-04-23 13:10:00,
2013-04-23 09:15:00,52.0,37.7,29.93,South,180,2.0,12.0,58,0.00,,---,0.00,VWS V14.01,2013-04-23 13:15:00,
2013-04-23 09:20:00,52.0,38.1,29.93,SSE,151,14.0,14.0,59,0.00,,---,0.00,VWS V14.01,2013-04-23 13:20:00,
2013-04-23 09:25:00,51.8,37.9,29.94,South,169,5.0,14.0,59,0.00,,---,0.00,VWS V14.01,2013-04-23 13:25:00,
2013-04-23 09:30:00,51.5,38.9,29.94,South,185,6.0,14.0,62,0.00,,---,0.00,VWS V14.01,2013-04-23 13:30:00,
2013-04-23 09:35:00,50.8,39.5,29.93,South,170,4.0,11.0,65,0.00,,---,0.00,VWS V14.01,2013-04-23 13:35:00,
2013-04-23 09:40:00,50.5,40.0,29.93,SSE,167,2.0,11.0,67,0.00,,---,0.00,VWS V14.01,2013-04-23 13:40:00,
2013-04-23 09:45:00,50.5,39.6,29.93,SSE,155,2.0,7.0,66,0.00,,---,0.00,VWS V14.01,2013-04-23 13:45:00,
2013-04-23 09:50:00,50.6,40.1,29.93,SSE,152,2.0,2.0,67,0.00,,---,0.00,VWS V14.01,2013-04-23 13:50:00,
2013-04-23 09:55:00,50.7,40.2,29.93,South,170,4.0,8.0,67,0.00,,---,0.00,VWS V14.01,2013-04-23 13:55:00,
2013-04-23 10:00:00,50.5,41.1,29.93,SE,126,3.0,8.0,70,0.00,,---,0.00,VWS V14.01,2013-04-23 14:00:00,
2013-04-23 10:05:00,49.8,41.5,29.94,SSE,159,4.0,8.0,73,0.00,,---,0.00,VWS V14.01,2013-04-23 14:05:00,
2013-04-23 10:10:00,49.0,42.1,29.92,SE,134,0.0,0.0,77,0.01,,---,0.00,VWS V14.01,2013-04-23 14:10:00,
2013-04-23 10:15:00,48.6,42.7,29.92,SSE,151,4.0,6.0,80,0.01,,---,0.01,VWS V14.01,2013-04-23 14:15:00,
2013-04-23 10:20:00,48.3,42.4,29.93,South,186,5.0,6.0,80,0.01,,---,0.01,VWS V14.01,2013-04-23 14:20:00,
2013-04-23 10:25:00,48.3,42.8,29.93,South,173,2.0,7.0,81,0.01,,---,0.01,VWS V14.01,2013-04-23 14:25:00,
2013-04-23 10:30:00,48.6,43.0,29.92,South,170,2.0,4.0,81,0.01,,---,0.01,VWS V14.01,2013-04-23 14:30:00,
2013-04-23 10:35:00,48.6,42.7,29.92,South,173,4.0,7.0,80,0.01,,---,0.01,VWS V14.01,2013-04-23 14:35:00,
2013-04-23 10:40:00,48.9,42.3,29.92,South,179,5.0,7.0,78,0.01,,---,0.01,VWS V14.01,2013-04-23 14:40:00,
2013-04-23 10:45:00,49.4,42.5,29.92,SSE,164,4.0,10.0,77,0.01,,---,0.01,VWS V14.01,2013-04-23 14:45:00,
2013-04-23 10:50:00,49.8,42.9,29.92,SSW,194,4.0,4.0,77,0.01,,---,0.01,VWS V14.01,2013-04-23 14:50:00,
2013-04-23 10:55:00,50.1,42.8,29.92,South,190,3.0,8.0,76,0.01,,---,0.01,VWS V14.01,2013-04-23 14:55:00,
2013-04-23 11:00:00,50.2,42.6,29.92,ESE,118,3.0,3.0,75,0.01,,---,0.01,VWS V14.01,2013-04-23 15:00:00,
2013-04-23 11:05:00,50.5,42.9,29.92,SSE,160,7.0,8.0,75,0.01,,---,0.01,VWS V14.01,2013-04-23 15:05:00,
2013-04-23 11:10:00,50.9,42.9,29.92,SSE,166,4.0,7.0,74,0.00,,---,0.01,VWS V14.01,2013-04-23 15:10:00,
2013-04-23 11:15:00,51.4,43.0,29.92,SE,140,6.0,12.0,73,0.00,,---,0.01,VWS V14.01,2013-04-23 15:15:00,
2013-04-23 11:20:00,51.7,43.3,29.92,South,175,8.0,10.0,73,0.00,,---,0.01,VWS V14.01,2013-04-23 15:20:00,
2013-04-23 11:25:00,52.3,43.9,29.92,SSW,193,3.0,10.0,73,0.00,,---,0.01,VWS V14.01,2013-04-23 15:25:00,
2013-04-23 11:30:00,52.7,43.9,29.91,SSE,165,4.0,6.0,72,0.00,,---,0.01,VWS V14.01,2013-04-23 15:30:00,
2013-04-23 11:35:00,53.2,44.4,29.91,SE,142,8.0,10.0,72,0.00,,---,0.01,VWS V14.01,2013-04-23 15:35:00,
2013-04-23 11:40:00,53.7,44.9,29.90,SSE,160,3.0,7.0,72,0.00,,---,0.01,VWS V14.01,2013-04-23 15:40:00,
2013-04-23 11:45:00,54.5,44.9,29.90,South,171,5.0,9.0,70,0.00,,---,0.01,VWS V14.01,2013-04-23 15:45:00,
2013-04-23 11:50:00,54.9,44.9,29.91,SSW,202,4.0,5.0,69,0.00,,---,0.01,VWS V14.01,2013-04-23 15:50:00,
2013-04-23 11:55:00,55.5,45.9,29.90,South,188,10.0,10.0,70,0.00,,---,0.01,VWS V14.01,2013-04-23 15:55:00,
2013-04-23 12:00:00,55.6,45.6,29.90,SSW,194,7.0,10.0,69,0.00,,---,0.01,VWS V14.01,2013-04-23 16:00:00,
2013-04-23 12:05:00,56.2,46.2,29.90,South,178,7.0,10.0,69,0.00,,---,0.01,VWS V14.01,2013-04-23 16:05:00,
2013-04-23 12:10:00,56.5,45.7,29.89,South,177,14.0,17.0,67,0.00,,---,0.01,VWS V14.01,2013-04-23 16:10:00,
2013-04-23 12:15:00,56.5,46.1,29.89,SSW,208,4.0,17.0,68,0.00,,---,0.01,VWS V14.01,2013-04-23 16:15:00,
2013-04-23 12:20:00,56.5,46.1,29.89,SSW,210,3.0,8.0,68,0.00,,---,0.01,VWS V14.01,2013-04-23 16:20:00,
2013-04-23 12:25:00,56.7,46.3,29.89,SSW,204,4.0,10.0,68,0.00,,---,0.01,VWS V14.01,2013-04-23 16:25:00,
2013-04-23 12:30:00,56.6,46.2,29.89,South,177,4.0,7.0,68,0.00,,---,0.01,VWS V14.01,2013-04-23 16:30:00,
2013-04-23 12:35:00,56.4,46.0,29.89,SSE,166,3.0,9.0,68,0.00,,---,0.01,VWS V14.01,2013-04-23 16:35:00,
2013-04-23 12:40:00,56.1,46.5,29.89,SSW,206,6.0,7.0,70,0.00,,---,0.01,VWS V14.01,2013-04-23 16:40:00,
2013-04-23 12:45:00,56.0,46.0,29.89,WSW,257,4.0,13.0,69,0.00,,---,0.01,VWS V14.01,2013-04-23 16:45:00,
2013-04-23 12:50:00,55.9,46.3,29.89,SSE,167,3.0,7.0,70,0.00,,---,0.01,VWS V14.01,2013-04-23 16:50:00,
2013-04-23 12:55:00,55.9,46.3,29.89,SE,145,3.0,15.0,70,0.00,,---,0.01,VWS V14.01,2013-04-23 16:55:00,
2013-04-23 13:00:00,55.9,46.3,29.89,South,184,7.0,9.0,70,0.00,,---,0.01,VWS V14.01,2013-04-23 17:00:00,
2013-04-23 13:05:00,55.9,46.7,29.89,WSW,249,4.0,9.0,71,0.00,,---,0.01,VWS V14.01,2013-04-23 17:05:00,
2013-04-23 13:10:00,55.9,46.3,29.89,West,264,7.0,7.0,70,0.00,,---,0.01,VWS V14.01,2013-04-23 17:10:00,
2013-04-23 13:15:00,56.1,46.5,29.89,WSW,247,0.0,8.0,70,0.00,,---,0.01,VWS V14.01,2013-04-23 17:15:00,
2013-04-23 13:20:00,56.5,46.5,29.88,SSW,206,8.0,17.0,69,0.00,,---,0.01,VWS V14.01,2013-04-23 17:20:00,
2013-04-23 13:21:00,56.2,46.6,29.88,West,271,5.0,7.0,70,0.00,,---,0.01,VWS V14.01,2013-04-23 17:21:00,
2013-04-23 13:26:00,56.3,47.0,29.89,West,266,4.0,7.0,71,0.00,,---,0.01,VWS V14.01,2013-04-23 17:26:00,
2013-04-23 13:30:00,56.5,46.1,29.89,SW,221,7.0,14.0,68,0.00,,---,0.01,VWS V14.01,2013-04-23 17:30:00,
2013-04-23 13:31:00,56.1,46.8,29.88,South,190,3.0,7.0,71,0.00,,---,0.01,VWS V14.01,2013-04-23 17:31:00,
2013-04-23 13:36:00,56.1,46.8,29.88,SW,232,6.0,7.0,71,0.00,,---,0.01,VWS V14.01,2013-04-23 17:36:00,
2013-04-23 13:40:00,56.2,45.8,29.89,SW,229,2.0,9.0,68,0.00,,---,0.01,VWS V14.01,2013-04-23 17:40:00,
2013-04-23 13:41:00,56.1,47.2,29.88,WSW,258,0.0,5.0,72,0.00,,---,0.01,VWS V14.01,2013-04-23 17:41:00,
2013-04-23 13:46:00,56.1,47.2,29.89,SW,234,3.0,8.0,72,0.00,,---,0.01,VWS V14.01,2013-04-23 17:46:00,
2013-04-23 13:50:00,55.9,46.3,29.89,South,179,7.0,13.0,70,0.00,,---,0.01,VWS V14.01,2013-04-23 17:50:00,
2013-04-23 13:51:00,55.9,47.4,29.89,West,278,9.0,10.0,73,0.00,,---,0.01,VWS V14.01,2013-04-23 17:51:00,
2013-04-23 13:56:00,54.8,46.0,29.89,West,262,7.0,12.0,72,0.00,,---,0.01,VWS V14.01,2013-04-23 17:56:00,
2013-04-23 14:00:00,56.0,46.4,29.89,South,177,6.0,15.0,70,0.00,,---,0.01,VWS V14.01,2013-04-23 18:00:00,
2013-04-23 14:01:00,52.6,46.3,29.89,WNW,283,10.0,11.0,79,0.00,,---,0.01,VWS V14.01,2013-04-23 18:01:00,
2013-04-23 14:06:00,51.1,46.4,29.89,West,261,10.0,13.0,84,0.00,,---,0.01,VWS V14.01,2013-04-23 18:06:00,
2013-04-23 14:10:00,55.9,46.3,29.89,South,180,4.0,9.0,70,0.00,,---,0.01,VWS V14.01,2013-04-23 18:10:00,
2013-04-23 14:11:00,50.2,46.5,29.89,West,263,4.0,7.0,87,0.00,,---,0.01,VWS V14.01,2013-04-23 18:11:00,
2013-04-23 14:16:00,49.8,46.4,29.89,West,260,11.0,12.0,88,0.00,,---,0.01,VWS V14.01,2013-04-23 18:16:00,
2013-04-23 14:20:00,56.2,46.9,29.89,SSW,206,4.0,8.0,71,0.00,,---,0.01,VWS V14.01,2013-04-23 18:20:00,
2013-04-23 14:21:00,49.3,46.2,29.89,WNW,297,2.0,5.0,89,0.00,,---,0.01,VWS V14.01,2013-04-23 18:21:00,
2013-04-23 14:26:00,48.6,45.2,29.89,WSW,248,4.0,14.0,88,0.00,,---,0.01,VWS V14.01,2013-04-23 18:26:00,
2013-04-23 14:30:00,56.1,46.8,29.88,WSW,254,1.0,11.0,71,0.00,,---,0.01,VWS V14.01,2013-04-23 18:30:00,
2013-04-23 14:31:00,48.0,44.9,29.88,NW,305,1.0,11.0,89,0.00,,---,0.01,VWS V14.01,2013-04-23 18:31:00,
2013-04-23 14:36:00,47.5,44.7,29.88,WNW,290,6.0,11.0,90,0.00,,---,0.01,VWS V14.01,2013-04-23 18:36:00,
2013-04-23 14:40:00,56.1,47.2,29.88,South,174,2.0,7.0,72,0.00,,---,0.01,VWS V14.01,2013-04-23 18:40:00,
2013-04-23 14:41:00,47.1,44.3,29.89,WNW,284,1.0,8.0,90,0.00,,---,0.01,VWS V14.01,2013-04-23 18:41:00,
2013-04-23 14:46:00,46.7,43.9,29.89,WSW,255,2.0,11.0,90,0.00,,---,0.01,VWS V14.01,2013-04-23 18:46:00,
2013-04-23 14:50:00,56.0,47.1,29.89,WSW,251,3.0,9.0,72,0.00,,---,0.01,VWS V14.01,2013-04-23 18:50:00,
2013-04-23 14:51:00,46.3,43.8,29.89,WNW,302,6.0,11.0,91,0.00,,---,0.01,VWS V14.01,2013-04-23 18:51:00,
2013-04-23 14:56:00,46.0,43.5,29.90,WNW,282,3.0,11.0,91,0.00,,---,0.01,VWS V14.01,2013-04-23 18:56:00,
2013-04-23 15:00:00,53.1,46.4,29.89,WSW,252,8.0,12.0,78,0.00,,---,0.01,VWS V14.01,2013-04-23 19:00:00,
2013-04-23 15:01:00,45.7,43.2,29.89,West,266,4.0,7.0,91,0.00,,---,0.01,VWS V14.01,2013-04-23 19:01:00,
2013-04-23 15:06:00,45.4,42.9,29.90,WNW,290,5.0,10.0,91,0.00,,---,0.01,VWS V14.01,2013-04-23 19:06:00,
2013-04-23 15:10:00,50.4,46.4,29.89,WSW,256,5.0,13.0,86,0.00,,---,0.01,VWS V14.01,2013-04-23 19:10:00,
2013-04-23 15:11:00,44.6,42.1,29.90,South,183,6.0,7.0,91,0.00,,---,0.01,VWS V14.01,2013-04-23 19:11:00,
2013-04-23 15:16:00,43.6,41.2,29.90,WNW,287,3.0,11.0,91,0.01,,---,0.02,VWS V14.01,2013-04-23 19:16:00,
2013-04-23 15:20:00,49.3,46.2,29.88,West,276,3.0,14.0,89,0.00,,---,0.01,VWS V14.01,2013-04-23 19:20:00,
2013-04-23 15:21:00,42.9,40.7,29.90,SW,235,8.0,8.0,92,0.01,,---,0.02,VWS V14.01,2013-04-23 19:21:00,
2013-04-23 15:26:00,42.2,40.3,29.90,WNW,299,5.0,11.0,93,0.01,,---,0.02,VWS V14.01,2013-04-23 19:26:00,
2013-04-23 15:30:00,48.2,45.1,29.88,West,261,9.0,14.0,89,0.00,,---,0.01,VWS V14.01,2013-04-23 19:30:00,
2013-04-23 15:31:00,41.8,40.2,29.91,WSW,252,2.0,3.0,94,0.02,,---,0.03,VWS V14.01,2013-04-23 19:31:00,
2013-04-23 15:36:00,41.5,40.2,29.91,WSW,250,1.0,9.0,95,0.02,,---,0.03,VWS V14.01,2013-04-23 19:36:00,
2013-04-23 15:40:00,47.3,44.5,29.89,West,263,2.0,11.0,90,0.00,,---,0.01,VWS V14.01,2013-04-23 19:40:00,
2013-04-23 15:41:00,41.2,39.9,29.91,West,274,2.0,9.0,95,0.03,,---,0.04,VWS V14.01,2013-04-23 19:41:00,
2013-04-23 15:46:00,41.0,39.7,29.91,NW,314,3.0,12.0,95,0.03,,---,0.04,VWS V14.01,2013-04-23 19:46:00,
2013-04-23 15:50:00,46.4,43.9,29.89,WNW,298,11.0,11.0,91,0.00,,---,0.01,VWS V14.01,2013-04-23 19:50:00,
2013-04-23 15:51:00,40.7,39.4,29.92,West,262,6.0,8.0,95,0.04,,---,0.05,VWS V14.01,2013-04-23 19:51:00,
2013-04-23 15:56:00,40.3,39.0,29.92,NW,309,0.0,8.0,95,0.04,,---,0.05,VWS V14.01,2013-04-23 19:56:00,
2013-04-23 16:00:00,45.7,43.2,29.89,WSW,258,7.0,11.0,91,0.00,,---,0.01,VWS V14.01,2013-04-23 20:00:00,
2013-04-23 16:01:00,40.2,38.9,29.92,WNW,298,1.0,5.0,95,0.05,,---,0.06,VWS V14.01,2013-04-23 20:01:00,
2013-04-23 16:06:00,40.0,38.7,29.92,West,276,4.0,8.0,95,0.06,,---,0.07,VWS V14.01,2013-04-23 20:06:00,
2013-04-23 16:10:00,44.7,42.2,29.90,West,271,6.0,12.0,91,0.00,,---,0.01,VWS V14.01,2013-04-23 20:10:00,
2013-04-23 16:11:00,39.6,38.3,29.93,NW,315,4.0,7.0,95,0.07,,---,0.08,VWS V14.01,2013-04-23 20:11:00,
2013-04-23 16:16:00,39.3,38.0,29.93,NW,320,2.0,9.0,95,0.07,,---,0.08,VWS V14.01,2013-04-23 20:16:00,
2013-04-23 16:20:00,43.0,40.8,29.90,West,265,5.0,13.0,92,0.01,,---,0.02,VWS V14.01,2013-04-23 20:20:00,
2013-04-23 16:21:00,39.0,38.0,29.93,NW,305,2.0,7.0,96,0.07,,---,0.09,VWS V14.01,2013-04-23 20:21:00,
2013-04-23 16:26:00,38.6,37.3,29.93,North,359,3.0,10.0,95,0.08,,---,0.10,VWS V14.01,2013-04-23 20:26:00,
2013-04-23 16:30:00,41.9,40.3,29.91,WSW,251,3.0,11.0,94,0.02,,---,0.03,VWS V14.01,2013-04-23 20:30:00,
2013-04-23 16:31:00,38.3,37.0,29.93,NW,321,8.0,11.0,95,0.07,,---,0.10,VWS V14.01,2013-04-23 20:31:00,
2013-04-23 16:36:00,38.0,36.7,29.93,North,359,4.0,13.0,95,0.08,,---,0.11,VWS V14.01,2013-04-23 20:36:00,
2013-04-23 16:40:00,41.3,40.0,29.91,West,281,7.0,9.0,95,0.02,,---,0.03,VWS V14.01,2013-04-23 20:40:00,
2013-04-23 16:41:00,37.6,36.3,29.93,North,357,5.0,9.0,95,0.09,,---,0.12,VWS V14.01,2013-04-23 20:41:00,
2013-04-23 16:46:00,37.2,35.9,29.93,NNW,344,6.0,12.0,95,0.10,,---,0.13,VWS V14.01,2013-04-23 20:46:00,
2013-04-23 16:50:00,40.7,39.4,29.91,NW,317,4.0,12.0,95,0.03,,---,0.04,VWS V14.01,2013-04-23 20:50:00,
2013-04-23 16:51:00,37.0,35.7,29.92,North,0,4.0,10.0,95,0.09,,---,0.13,VWS V14.01,2013-04-23 20:51:00,
2013-04-23 16:56:00,36.9,35.6,29.92,North,359,4.0,10.0,95,0.10,,---,0.14,VWS V14.01,2013-04-23 20:56:00,
2013-04-23 17:00:00,40.2,38.9,29.92,WNW,298,2.0,8.0,95,0.05,,---,0.06,VWS V14.01,2013-04-23 21:00:00,
2013-04-23 17:01:00,36.7,35.4,29.93,North,0,1.0,5.0,95,0.09,,---,0.15,VWS V14.01,2013-04-23 21:01:00,
2013-04-23 17:06:00,36.7,35.4,29.92,North,351,7.0,10.0,95,0.09,,---,0.15,VWS V14.01,2013-04-23 21:06:00,
2013-04-23 17:10:00,39.7,38.7,29.92,NNW,347,2.0,9.0,96,0.06,,---,0.07,VWS V14.01,2013-04-23 21:10:00,
2013-04-23 17:11:00,36.7,35.4,29.92,North,357,2.0,7.0,95,0.09,,---,0.16,VWS V14.01,2013-04-23 21:11:00,
2013-04-23 17:16:00,36.6,35.3,29.93,NNW,327,5.0,7.0,95,0.09,,---,0.16,VWS V14.01,2013-04-23 21:16:00,
2013-04-23 17:20:00,39.2,37.9,29.93,NNW,329,2.0,9.0,95,0.08,,---,0.09,VWS V14.01,2013-04-23 21:20:00,
2013-04-23 17:21:00,36.6,35.3,29.93,NNW,328,5.0,8.0,95,0.08,,---,0.17,VWS V14.01,2013-04-23 21:21:00,
2013-04-23 17:26:00,36.6,35.3,29.93,NNW,348,4.0,11.0,95,0.08,,---,0.17,VWS V14.01,2013-04-23 21:26:00,
2013-04-23 17:30:00,38.5,37.5,29.93,NNW,347,5.0,10.0,96,0.08,,---,0.10,VWS V14.01,2013-04-23 21:30:00,
2013-04-23 17:31:00,36.6,35.3,29.93,NNW,334,4.0,9.0,95,0.07,,---,0.17,VWS V14.01,2013-04-23 21:31:00,
2013-04-23 17:36:00,36.6,35.6,29.93,North,359,2.0,9.0,96,0.08,,---,0.18,VWS V14.01,2013-04-23 21:36:00,
2013-04-23 17:40:00,37.8,36.5,29.93,NNW,336,6.0,13.0,95,0.09,,---,0.12,VWS V14.01,2013-04-23 21:40:00,
2013-04-23 17:41:00,36.5,35.2,29.93,North,354,6.0,8.0,95,0.06,,---,0.18,VWS V14.01,2013-04-23 21:41:00,
2013-04-23 17:46:00,36.3,35.0,29.93,North,354,4.0,8.0,95,0.07,,---,0.19,VWS V14.01,2013-04-23 21:46:00,
2013-04-23 17:50:00,37.0,35.7,29.92,North,0,7.0,12.0,95,0.10,,---,0.13,VWS V14.01,2013-04-23 21:50:00,
2013-04-23 17:51:00,36.2,34.9,29.93,NNW,347,5.0,9.0,95,0.06,,---,0.19,VWS V14.01,2013-04-23 21:51:00,
2013-04-23 17:56:00,36.0,34.7,29.93,NNW,345,6.0,15.0,95,0.07,,---,0.20,VWS V14.01,2013-04-23 21:56:00,
2013-04-23 18:00:00,36.7,35.4,29.92,North,0,2.0,10.0,95,0.10,,---,0.14,VWS V14.01,2013-04-23 22:00:00,
2013-04-23 18:01:00,36.0,34.7,29.93,NNW,347,8.0,8.0,95,0.06,,---,0.20,VWS V14.01,2013-04-23 22:01:00,
2013-04-23 18:07:00,35.9,34.6,29.93,NNW,336,4.0,10.0,95,0.07,,---,0.21,VWS V14.01,2013-04-23 22:07:00,
2013-04-23 18:10:00,36.7,35.4,29.92,North,357,6.0,10.0,95,0.10,,---,0.16,VWS V14.01,2013-04-23 22:10:00,
2013-04-23 18:12:00,35.7,34.4,29.93,NNW,338,3.0,8.0,95,0.06,,---,0.22,VWS V14.01,2013-04-23 22:12:00,
2013-04-23 18:17:00,35.5,34.2,29.94,North,359,4.0,9.0,95,0.06,,---,0.22,VWS V14.01,2013-04-23 22:17:00,
2013-04-23 18:20:00,36.6,35.3,29.92,North,350,2.0,8.0,95,0.10,,---,0.17,VWS V14.01,2013-04-23 22:20:00,
2013-04-23 18:22:00,35.3,34.0,29.95,North,350,7.0,10.0,95,0.05,,---,0.22,VWS V14.01,2013-04-23 22:22:00,
2013-04-23 18:27:00,35.0,33.7,29.95,NW,322,6.0,10.0,95,0.06,,---,0.23,VWS V14.01,2013-04-23 22:27:00,
2013-04-23 18:30:00,36.6,35.3,29.93,NNW,347,3.0,11.0,95,0.08,,---,0.17,VWS V14.01,2013-04-23 22:30:00,
2013-04-23 18:32:00,34.5,33.2,29.95,NNW,343,7.0,9.0,95,0.06,,---,0.23,VWS V14.01,2013-04-23 22:32:00,
2013-04-23 18:37:00,34.0,32.7,29.95,NNW,344,10.0,10.0,95,0.07,,---,0.24,VWS V14.01,2013-04-23 22:37:00,
2013-04-23 18:40:00,36.5,35.2,29.93,North,355,4.0,9.0,95,0.08,,---,0.18,VWS V14.01,2013-04-23 22:40:00,
2013-04-23 18:42:00,33.5,32.2,29.95,NNW,334,4.0,7.0,95,0.06,,---,0.24,VWS V14.01,2013-04-23 22:42:00,
2013-04-23 18:47:00,33.0,31.7,29.95,North,359,3.0,8.0,95,0.06,,---,0.24,VWS V14.01,2013-04-23 22:47:00,
2013-04-23 18:50:00,36.2,34.9,29.93,North,0,4.0,9.0,95,0.07,,---,0.19,VWS V14.01,2013-04-23 22:50:00,
2013-04-23 18:52:00,32.7,31.4,29.95,North,356,3.0,5.0,95,0.05,,---,0.24,VWS V14.01,2013-04-23 22:52:00,
2013-04-23 18:57:00,32.5,31.5,29.95,North,355,5.0,7.0,96,0.05,,---,0.24,VWS V14.01,2013-04-23 22:57:00,
2013-04-23 19:00:00,36.0,34.7,29.93,NNW,346,8.0,15.0,95,0.07,,---,0.20,VWS V14.01,2013-04-23 23:00:00,
2013-04-23 19:02:00,32.4,31.4,29.94,North,355,3.0,5.0,96,0.04,,---,0.24,VWS V14.01,2013-04-23 23:02:00,
2013-04-23 19:07:00,32.2,31.2,29.94,North,355,1.0,5.0,96,0.04,,---,0.24,VWS V14.01,2013-04-23 23:07:00,
2013-04-23 19:10:00,35.7,34.4,29.93,NW,313,8.0,10.0,95,0.07,,---,0.21,VWS V14.01,2013-04-23 23:10:00,
2013-04-23 19:12:00,32.2,31.2,29.94,North,355,1.0,5.0,96,0.03,,---,0.24,VWS V14.01,2013-04-23 23:12:00,
2013-04-23 19:17:00,32.2,31.5,29.94,North,355,2.0,5.0,97,0.03,,---,0.24,VWS V14.01,2013-04-23 23:17:00,
2013-04-23 19:20:00,35.3,34.0,29.94,North,350,5.0,9.0,95,0.06,,---,0.22,VWS V14.01,2013-04-23 23:20:00,
2013-04-23 19:22:00,32.1,31.4,29.95,North,355,4.0,4.0,97,0.02,,---,0.24,VWS V14.01,2013-04-23 23:22:00,
2013-04-23 19:27:00,32.2,31.5,29.95,NNW,345,3.0,6.0,97,0.02,,---,0.24,VWS V14.01,2013-04-23 23:27:00,
2013-04-23 19:30:00,34.7,33.4,29.95,North,358,7.0,10.0,95,0.06,,---,0.23,VWS V14.01,2013-04-23 23:30:00,
2013-04-23 19:32:00,32.2,31.5,29.95,North,358,5.0,6.0,97,0.01,,---,0.24,VWS V14.01,2013-04-23 23:32:00,
2013-04-23 19:37:00,32.2,31.5,29.95,North,350,6.0,8.0,97,0.02,,---,0.25,VWS V14.01,2013-04-23 23:37:00,
2013-04-23 19:40:00,33.7,32.4,29.95,NNW,346,4.0,10.0,95,0.07,,---,0.24,VWS V14.01,2013-04-23 23:40:00,
2013-04-23 19:42:00,32.4,31.6,29.95,NNW,334,4.0,10.0,97,0.01,,---,0.25,VWS V14.01,2013-04-23 23:42:00,
2013-04-23 19:47:00,32.4,31.6,29.95,NNW,336,5.0,10.0,97,0.01,,---,0.25,VWS V14.01,2013-04-23 23:47:00,
2013-04-23 19:50:00,32.9,31.9,29.95,NNW,343,5.0,8.0,96,0.06,,---,0.24,VWS V14.01,2013-04-23 23:50:00,
2013-04-23 19:52:00,32.4,31.6,29.95,North,352,5.0,10.0,97,0.01,,---,0.25,VWS V14.01,2013-04-23 23:52:00,
2013-04-23 19:57:00,32.4,31.6,29.95,NNE,15,9.0,12.0,97,0.01,,---,0.25,VWS V14.01,2013-04-23 23:57:00,
2013-04-23 20:00:00,32.4,31.4,29.95,North,355,4.0,7.0,96,0.05,,---,0.24,VWS V14.01,2013-04-24 00:00:00,
2013-04-23 20:02:00,32.4,31.6,29.96,North,357,8.0,9.0,97,0.01,,---,0.25,VWS V14.01,2013-04-24 00:02:00,
2013-04-23 20:07:00,32.2,31.7,29.95,North,352,7.0,13.0,98,0.01,,---,0.25,VWS V14.01,2013-04-24 00:07:00,
2013-04-23 20:10:00,32.2,31.2,29.94,North,355,3.0,5.0,96,0.04,,---,0.24,VWS V14.01,2013-04-24 00:10:00,
2013-04-23 20:12:00,32.2,31.5,29.95,NNW,337,9.0,13.0,97,0.01,,---,0.25,VWS V14.01,2013-04-24 00:12:00,
2013-04-23 20:17:00,32.2,31.5,29.95,NNW,327,7.0,13.0,97,0.01,,---,0.25,VWS V14.01,2013-04-24 00:17:00,
2013-04-23 20:20:00,32.2,31.5,29.95,North,355,3.0,5.0,97,0.03,,---,0.24,VWS V14.01,2013-04-24 00:20:00,
2013-04-23 20:22:00,32.2,31.5,29.94,NNW,341,7.0,14.0,97,0.01,,---,0.25,VWS V14.01,2013-04-24 00:22:00,
2013-04-23 20:27:00,32.2,31.7,29.95,NNW,337,10.0,14.0,98,0.01,,---,0.25,VWS V14.01,2013-04-24 00:27:00,
2013-04-23 20:30:00,32.2,31.5,29.95,NNW,338,0.0,6.0,97,0.02,,---,0.24,VWS V14.01,2013-04-24 00:30:00,
2013-04-23 20:32:00,32.2,31.7,29.95,NNW,346,4.0,13.0,98,0.01,,---,0.25,VWS V14.01,2013-04-24 00:32:00,
2013-04-23 20:37:00,32.1,31.4,29.95,NNW,347,6.0,13.0,97,0.01,,---,0.25,VWS V14.01,2013-04-24 00:37:00,
2013-04-23 20:40:00,32.2,31.5,29.95,NNW,343,6.0,9.0,97,0.02,,---,0.25,VWS V14.01,2013-04-24 00:40:00,
2013-04-23 20:42:00,32.1,31.4,29.94,NNW,347,7.0,10.0,97,0.00,,---,0.25,VWS V14.01,2013-04-24 00:42:00,
2013-04-23 20:47:00,32.1,31.4,29.95,North,355,3.0,11.0,97,0.00,,---,0.25,VWS V14.01,2013-04-24 00:47:00,
2013-04-23 20:50:00,32.4,31.9,29.95,NNW,340,8.0,10.0,98,0.01,,---,0.25,VWS V14.01,2013-04-24 00:50:00,
2013-04-23 20:52:00,32.1,31.4,29.95,North,355,4.0,5.0,97,0.00,,---,0.25,VWS V14.01,2013-04-24 00:52:00,
2013-04-23 20:57:00,32.2,31.5,29.95,NNW,346,7.0,7.0,97,0.00,,---,0.25,VWS V14.01,2013-04-24 00:57:00,
2013-04-23 21:00:00,32.4,31.9,29.95,North,7,6.0,12.0,98,0.01,,---,0.25,VWS V14.01,2013-04-24 01:00:00,
2013-04-23 21:02:00,32.2,31.5,29.95,NNW,343,3.0,7.0,97,0.00,,---,0.25,VWS V14.01,2013-04-24 01:02:00,
2013-04-23 21:07:00,32.2,31.5,29.96,North,356,3.0,9.0,97,0.00,,---,0.25,VWS V14.01,2013-04-24 01:07:00,
2013-04-23 21:10:00,32.2,31.5,29.95,NNW,346,6.0,13.0,97,0.01,,---,0.25,VWS V14.01,2013-04-24 01:10:00,
2013-04-23 21:12:00,32.2,31.5,29.96,NNW,340,4.0,9.0,97,0.00,,---,0.25,VWS V14.01,2013-04-24 01:12:00,
2013-04-23 21:17:00,32.2,31.5,29.95,North,352,4.0,9.0,97,0.00,,---,0.25,VWS V14.01,2013-04-24 01:17:00,
2013-04-23 21:20:00,32.2,31.7,29.95,NNW,339,5.0,13.0,98,0.01,,---,0.25,VWS V14.01,2013-04-24 01:20:00,
2013-04-23 21:22:00,32.2,31.5,29.96,NNW,343,6.0,8.0,97,0.01,,---,0.26,VWS V14.01,2013-04-24 01:22:00,
2013-04-23 21:27:00,32.2,31.5,29.96,North,354,5.0,8.0,97,0.01,,---,0.26,VWS V14.01,2013-04-24 01:27:00,
2013-04-23 21:30:00,32.2,31.7,29.95,North,352,12.0,14.0,98,0.01,,---,0.25,VWS V14.01,2013-04-24 01:30:00,
2013-04-23 21:32:00,32.2,31.5,29.95,NNW,346,5.0,8.0,97,0.01,,---,0.26,VWS V14.01,2013-04-24 01:32:00,
2013-04-23 21:37:00,32.2,31.5,29.96,North,358,4.0,8.0,97,0.01,,---,0.26,VWS V14.01,2013-04-24 01:37:00,
2013-04-23 21:40:00,32.1,31.4,29.95,North,358,7.0,13.0,97,0.01,,---,0.25,VWS V14.01,2013-04-24 01:40:00,
2013-04-23 21:42:00,32.4,31.6,29.95,North,352,2.0,7.0,97,0.01,,---,0.26,VWS V14.01,2013-04-24 01:42:00,
2013-04-23 21:47:00,32.4,31.6,29.96,North,352,2.0,7.0,97,0.01,,---,0.26,VWS V14.01,2013-04-24 01:47:00,
2013-04-23 21:50:00,32.1,31.4,29.95,North,354,5.0,11.0,97,0.00,,---,0.25,VWS V14.01,2013-04-24 01:50:00,
2013-04-23 21:52:00,32.4,31.9,29.95,North,352,4.0,5.0,98,0.01,,---,0.26,VWS V14.01,2013-04-24 01:52:00,
2013-04-23 21:57:00,32.4,31.6,29.95,NNW,340,2.0,7.0,97,0.01,,---,0.26,VWS V14.01,2013-04-24 01:57:00,
2013-04-23 22:00:00,32.2,31.5,29.95,NNE,17,5.0,8.0,97,0.00,,---,0.25,VWS V14.01,2013-04-24 02:00:00,
2013-04-23 22:02:00,32.4,31.6,29.95,NNW,340,2.0,5.0,97,0.01,,---,0.26,VWS V14.01,2013-04-24 02:02:00,
2013-04-23 22:07:00,32.4,31.6,29.95,NNW,340,2.0,5.0,97,0.01,,---,0.26,VWS V14.01,2013-04-24 02:07:00,
2013-04-23 22:10:00,32.2,31.5,29.96,NNW,331,5.0,9.0,97,0.00,,---,0.25,VWS V14.01,2013-04-24 02:10:00,
2013-04-23 22:13:00,32.4,31.4,29.95,NNW,340,2.0,5.0,96,0.01,,---,0.26,VWS V14.01,2013-04-24 02:13:00,
2013-04-23 22:18:00,32.4,31.6,29.96,WNW,300,0.0,5.0,97,0.01,,---,0.26,VWS V14.01,2013-04-24 02:18:00,
2013-04-23 22:20:00,32.2,31.5,29.96,NNW,343,3.0,9.0,97,0.00,,---,0.25,VWS V14.01,2013-04-24 02:20:00,
2013-04-23 22:23:00,32.4,31.6,29.95,North,359,2.0,5.0,97,0.01,,---,0.26,VWS V14.01,2013-04-24 02:23:00,
2013-04-23 22:28:00,32.5,31.7,29.95,WNW,299,2.0,5.0,97,0.01,,---,0.26,VWS V14.01,2013-04-24 02:28:00,
2013-04-23 22:30:00,32.2,31.5,29.96,North,351,5.0,8.0,97,0.01,,---,0.26,VWS V14.01,2013-04-24 02:30:00,
2013-04-23 22:33:00,32.5,31.7,29.96,NNW,340,2.0,4.0,97,0.00,,---,0.26,VWS V14.01,2013-04-24 02:33:00,
2013-04-23 22:38:00,32.5,31.7,29.96,NNW,329,5.0,5.0,97,0.00,,---,0.26,VWS V14.01,2013-04-24 02:38:00,
2013-04-23 22:40:00,32.2,31.5,29.96,North,356,6.0,8.0,97,0.01,,---,0.26,VWS V14.01,2013-04-24 02:40:00,
2013-04-23 22:43:00,32.5,31.7,29.96,NNW,332,3.0,7.0,97,0.00,,---,0.26,VWS V14.01,2013-04-24 02:43:00,
2013-04-23 22:48:00,32.5,31.7,29.96,North,0,4.0,7.0,97,0.00,,---,0.26,VWS V14.01,2013-04-24 02:48:00,
2013-04-23 22:50:00,32.4,31.6,29.95,North,352,3.0,7.0,97,0.01,,---,0.26,VWS V14.01,2013-04-24 02:50:00,
2013-04-23 22:53:00,32.5,31.7,29.96,NW,312,3.0,4.0,97,0.00,,---,0.26,VWS V14.01,2013-04-24 02:53:00,
2013-04-23 22:58:00,32.7,31.9,29.96,NNW,339,2.0,5.0,97,0.00,,---,0.26,VWS V14.01,2013-04-24 02:58:00,
2013-04-23 23:00:00,32.4,31.6,29.95,NNW,340,3.0,7.0,97,0.01,,---,0.26,VWS V14.01,2013-04-24 03:00:00,
2013-04-23 23:03:00,32.6,31.8,29.96,North,2,3.0,7.0,97,0.00,,---,0.26,VWS V14.01,2013-04-24 03:03:00,
2013-04-23 23:08:00,32.7,31.9,29.96,NW,305,0.0,7.0,97,0.00,,---,0.26,VWS V14.01,2013-04-24 03:08:00,
2013-04-23 23:10:00,32.4,31.6,29.95,NNW,340,2.0,5.0,97,0.01,,---,0.26,VWS V14.01,2013-04-24 03:10:00,
2013-04-23 23:13:00,32.7,31.9,29.96,NNW,329,2.0,5.0,97,0.00,,---,0.26,VWS V14.01,2013-04-24 03:13:00,
2013-04-23 23:19:00,32.7,31.9,29.96,NW,315,2.0,11.0,97,0.00,,---,0.26,VWS V14.01,2013-04-24 03:19:00,
2013-04-23 23:20:00,32.4,31.6,29.96,WNW,300,2.0,5.0,97,0.01,,---,0.26,VWS V14.01,2013-04-24 03:20:00,
2013-04-23 23:24:00,32.6,31.8,29.95,North,351,9.0,9.0,97,0.00,,---,0.26,VWS V14.01,2013-04-24 03:24:00,
2013-04-23 23:29:00,32.9,31.9,29.95,NNW,330,3.0,10.0,96,0.00,,---,0.26,VWS V14.01,2013-04-24 03:29:00,
2013-04-23 23:30:00,32.5,31.8,29.96,NNW,338,2.0,5.0,97,0.01,,---,0.26,VWS V14.01,2013-04-24 03:30:00,
2013-04-23 23:34:00,32.8,31.8,29.96,NNW,348,1.0,6.0,96,0.00,,---,0.26,VWS V14.01,2013-04-24 03:34:00,
2013-04-23 23:39:00,32.9,31.9,29.95,North,353,6.0,8.0,96,0.00,,---,0.26,VWS V14.01,2013-04-24 03:39:00,
2013-04-23 23:40:00,32.5,31.8,29.96,NW,313,2.0,5.0,97,0.00,,---,0.26,VWS V14.01,2013-04-24 03:40:00,
2013-04-23 23:44:00,32.8,31.5,29.95,NNW,345,5.0,6.0,95,0.00,,---,0.26,VWS V14.01,2013-04-24 03:44:00,
2013-04-23 23:49:00,32.9,31.6,29.95,NW,323,5.0,6.0,95,0.00,,---,0.26,VWS V14.01,2013-04-24 03:49:00,
2013-04-23 23:50:00,32.5,31.5,29.96,North,357,0.0,7.0,96,0.00,,---,0.26,VWS V14.01,2013-04-24 03:50:00,
2013-04-23 23:55:00,32.9,31.6,29.96,NNW,346,3.0,8.0,95,0.00,,---,0.26,VWS V14.01,2013-04-24 03:55:00,
2013-04-23 23:59:00,32.8,31.5,29.95,North,354,3.0,8.0,95,0.00,,---,0.26,VWS V14.01,2013-04-24 03:59:00,